首页
METAR-TAF:

METAR-TAF

机场 :

空军基地 Lanvéoc-Poulmic

Lanvéoc, 法国

纬度: 48-17N, 经度: 004-26W, 海拔: 87米

当前天气观测

该预报发布于36分钟前的21:00 UTC
风速8节,风向北转西北
温度 7°C
湿度 76%
气压 1007 hPa
能见度10公里或以上
少量云层高于3800英尺
多云层高于21000英尺
多云层高于24000英尺

METAR: LFRL 122100Z AUTO 34008KT 9999 FEW038 BKN210 BKN240 07/03 Q1007 NOSIG

时间: 22:36 (21:36 UTC)

预报

该预报发布于10小时和36分钟前的11:00 UTC
预报有效从12日的 12点(UTC)到 13日的 12点(UTC)
风速11节,风向西转西北
能见度10公里或以上
散云层高于2500英尺
短暂存在
从 12日的 12点(UTC)到 12日的 15点(UTC)
风速15节,风向西转西北,有时为25节阵风
能見度: 4000
散云层高于1400英尺, 塔状积云.
阵雨
短暂存在
从 12日的 21点(UTC)到 13日的 06点(UTC)
能见度10公里或以上
1500米以下无云,无积雨云
成为
从 13日的 10点(UTC)到 13日的 12点(UTC)
风速13节,风向西转西南,有时为23节阵风
能見度: 4000
多云层高于1400英尺
多云层高于2000英尺, 塔状积云.

TAF: LFRL 121100Z 1212/1312 30011KT 9999 SCT025 TEMPO 1212/1215 30015G25KT 4000 SHRA SCT014TCU TEMPO 1221/1306 CAVOK BECMG 1310/1312 24013G23KT 4000 RA BKN014 BKN020TCU

超过4000个机场的气象观测和天气预报(METAR&TAF报告)。

可查询的气象台以黄色和红色小点在地图上表示。

将鼠标移到小点上方,可查看气象台名称。

然后点击查看天气观测和预报。

如需切换地图:点击带黑十字的绿色按钮放大地图;点击带横线的绿色按钮缩小地图;或者点击绿色箭头查看邻近地区的地图。


METAR-TAF: